• Join FlightAware (Why Join?)
  • Login
  • US Flag 
05:48AM EDT


 

Airport Tracker/Info


-or-


 

Live Flight TrackerFlight Track Log ✈ AAR8738 ✈ 31-Mar-2014 ✈ RKJY / RSU - RKSS / GMP

Flight Track Log - Related Links

Times and Time Zones

All times are in EDT time to prevent confusion due to time zone crossing. See the AAR8738 flight status page for this flight to view local times or setup timezone preferences in your user account.

Time Position Orientation Groundspeed Altitude Reporting Facility
EDT Latitude Longitude Course Direction KTS MPH feet Rate Location/Type
05:59AM 35.1514 127.5237 346° North  Level Estimated
06:00AM 35.2293 127.5007 346° North  Level Estimated
06:01AM 35.3072 127.4776 346° North  Level Estimated
06:02AM 35.3851 127.4545 346° North  Level Estimated
06:03AM 35.4630 127.4314 346° North  Level Estimated
06:04AM 35.5409 127.4082 346° North  Level Estimated
06:05AM 35.6188 127.3850 346° North  Level Estimated
06:06AM 35.6966 127.3617 346° North  Level Estimated
06:07AM 35.7745 127.3384 346° North  Level Estimated
06:08AM 35.8524 127.3150 346° North  Level Estimated
06:09AM 35.9302 127.2916 346° North  Level Estimated
06:10AM 36.0081 127.2681 346° North  Level Estimated
06:11AM 36.0859 127.2446 346° North  Level Estimated
06:12AM 36.1638 127.2210 346° North  Level Estimated
06:13AM 36.2416 127.1974 346° North  Level Estimated
06:14AM 36.3195 127.1738 346° North  Level Estimated
06:15AM 36.3973 127.1501 346° North  Level Estimated
06:16AM 36.4751 127.1263 346° North  Level Estimated
06:17AM 36.5529 127.1025 346° North  Level Estimated
06:18AM 36.6307 127.0787 346° North  Level Estimated
06:19AM 36.7086 127.0548 346° North  Level Estimated
06:20AM 36.7864 127.0309 346° North  Level Estimated
06:21AM 36.8642 127.0069 346° North  Level Estimated
06:22AM 36.9420 126.9828 346° North  Level Estimated
06:23AM 37.0198 126.9587 346° North  Level Estimated
06:24AM 37.0975 126.9346 346° North  Level Estimated
06:25AM 37.1753 126.9104 346° North  Level Estimated
06:26AM 37.2531 126.8862 346° North  Level Estimated
06:27AM 37.3309 126.8619 346° North  Level Estimated
06:28AM 37.4086 126.8376 346° North  Level Estimated
06:29AM 37.4864 126.8132 346° North  Level Estimated
06:30AM 37.5583 126.7906 346° North  Level Estimated
06:31AM 37.5583 126.7906 North  Level Estimated
06:32AM 37.5583 126.7906 North  Level Estimated
06:32AM 37.4211 126.9599 316° Northwest 154 177 3,400  Level FlightAware ADS-B (SBCF / CNF)
06:32AM 37.4287 126.9504 315° West 149 171 3,200 -660 Descending FlightAware ADS-B (SBCF / CNF)
06:32AM 37.4353 126.9420 316° Northwest 149 171 3,100 -600 Descending FlightAware ADS-B (SBCF / CNF)
06:32AM 37.4433 126.9322 316° Northwest 147 169 2,900 -1,020 Descending FlightAware ADS-B (SBCF / CNF)
06:33AM 37.4502 126.9236 315° West 148 170 2,600 -1,020 Descending FlightAware ADS-B (SBCF / CNF)
06:33AM 37.4576 126.9142 315° West 147 169 2,400 -660 Descending FlightAware ADS-B (SBCF / CNF)
06:33AM 37.4641 126.9061 315° West 145 167 2,300 -600 Descending FlightAware ADS-B (SBCF / CNF)
06:33AM 37.4719 126.8963 315° West 132 152 2,100 -840 Descending FlightAware ADS-B (SBCF / CNF)
06:34AM 37.4771 126.8898 315° West 125 144 1,900 -600 Descending FlightAware ADS-B (SBCF / CNF)
06:34AM 37.4840 126.8813 316° Northwest 120 138 1,800 -600 Descending FlightAware ADS-B (SBCF / CNF)
06:34AM 37.4897 126.8741 315° West 118 136 1,600 -840 Descending FlightAware ADS-B (SBCF / CNF)
06:34AM 37.4956 126.8666 315° West 118 136 1,400 -720 Descending FlightAware ADS-B (SBCF / CNF)
06:35AM 37.5029 126.8576 315° West 118 136 1,200 -720 Descending FlightAware ADS-B (SBCF / CNF)
06:35AM 37.5094 126.8494 315° West 118 136 1,000 -540 Descending FlightAware ADS-B (SBCF / CNF)
06:35AM 37.5169 126.8401 316° Northwest 119 137 900 -480 Descending FlightAware ADS-B (SBCF / CNF)
06:36AM 37.5227 126.8328 315° West 121 139 700 -780 Descending FlightAware ADS-B (SBCF / CNF)
06:36AM 37.5332 126.8195 315° West 127 146 400 -780 Descending FlightAware ADS-B (SBCF / CNF)
06:36AM 37.5411 126.8096 315° West 130 150 200 -660 Descending FlightAware ADS-B (SBCF / CNF)
06:39AM 37.5583 126.7906 319° Northwest  Level Estimated
06:40AM 37.5583 126.7906 North  Level Estimated
06:41AM 37.5583 126.7906 North  Level Estimated
06:42AM 37.5583 126.7906 North  Level Estimated
06:43AM 37.5583 126.7906 North  Level Estimated
06:44AM 37.5583 126.7906 North  Level Estimated
06:45AM 37.5583 126.7906 North  Level Estimated
06:46AM 37.5583 126.7906 North  Level Estimated